Time;durP1;ratioP1;P1;durP2;ratioP2;P2;SDS_P1;SDS_P2;PMS_P1;PMS_P2;Temp;Humidity;BMP_temperature;BMP_pressure;BME280_temperature;BME280_humidity;BME280_pressure;Samples;Min_cycle;Max_cycle;Signal;HPM_P1;HPM_P2
2023/04/10 00:00:10;;;;;;;40.55;27.63;;;;;;;;;;4953374;29;20027;-94
2023/04/10 00:02:39;;;;;;;42.70;28.45;;;;;;;;;;4968638;29;20027;-94
2023/04/10 00:05:07;;;;;;;46.70;29.45;;;;;;;;;;4952805;29;20048;-95
2023/04/10 00:07:33;;;;;;;43.38;28.05;;;;;;;;;;4968741;29;20152;-96
2023/04/10 00:15:11;;;;;;;44.25;28.75;;;;;;;;;;5399613;23;20038;-96
2023/04/10 00:18:25;;;;;;;44.60;28.27;;;;;;;;;;5013599;28;20082;-96
2023/04/10 00:20:51;;;;;;;45.25;27.75;;;;;;;;;;5008925;28;20428;-96
2023/04/10 00:23:46;;;;;;;47.25;27.67;;;;;;;;;;4996311;28;20050;-96
2023/04/10 00:26:12;;;;;;;42.92;27.20;;;;;;;;;;5097414;23;20066;-96
2023/04/10 00:28:38;;;;;;;45.00;28.00;;;;;;;;;;5010137;28;20038;-95
2023/04/10 00:34:30;;;;;;;38.67;25.50;;;;;;;;;;5007783;28;20451;-95
2023/04/10 00:36:56;;;;;;;41.42;26.52;;;;;;;;;;5005754;28;20045;-95
2023/04/10 00:39:22;;;;;;;41.45;26.40;;;;;;;;;;4998250;28;20030;-96
2023/04/10 00:41:48;;;;;;;39.58;25.60;;;;;;;;;;4999285;28;20125;-95
2023/04/10 00:44:14;;;;;;;39.45;26.85;;;;;;;;;;4998818;28;20026;-96
2023/04/10 00:46:41;;;;;;;37.97;25.40;;;;;;;;;;4998148;28;20031;-93
2023/04/10 00:49:08;;;;;;;40.88;26.17;;;;;;;;;;4996890;28;20042;-93
2023/04/10 00:51:35;;;;;;;39.83;25.63;;;;;;;;;;4998121;28;20038;-92
2023/04/10 00:54:01;;;;;;;39.17;26.10;;;;;;;;;;4996883;28;20025;-93
2023/04/10 00:56:28;;;;;;;40.72;26.38;;;;;;;;;;4991821;28;20026;-94
2023/04/10 00:58:54;;;;;;;40.17;25.80;;;;;;;;;;4977658;28;20046;-93
2023/04/10 01:04:39;;;;;;;41.63;26.00;;;;;;;;;;4978694;28;20062;-94
2023/04/10 01:07:19;;;;;;;41.10;25.02;;;;;;;;;;4978344;28;20036;-93
2023/04/10 01:10:08;;;;;;;41.95;26.30;;;;;;;;;;4978310;28;20035;-95
2023/04/10 01:12:52;;;;;;;48.42;25.90;;;;;;;;;;4978070;28;20107;-94
2023/04/10 01:15:20;;;;;;;40.05;25.83;;;;;;;;;;4977581;28;20066;-94
2023/04/10 01:20:50;;;;;;;41.00;25.23;;;;;;;;;;4981896;28;20033;-94
2023/04/10 01:23:19;;;;;;;39.83;24.63;;;;;;;;;;4980550;28;20417;-93
2023/04/10 01:25:51;;;;;;;38.55;25.15;;;;;;;;;;4981489;28;20058;-93
2023/04/10 01:28:30;;;;;;;36.67;24.88;;;;;;;;;;4980764;28;20046;-95
2023/04/10 01:30:57;;;;;;;37.05;23.35;;;;;;;;;;4981700;28;20332;-94
2023/04/10 01:36:30;;;;;;;35.30;22.88;;;;;;;;;;4981829;28;20321;-95
2023/04/10 01:38:57;;;;;;;35.53;24.25;;;;;;;;;;4980554;28;20031;-95
2023/04/10 01:41:23;;;;;;;36.45;23.95;;;;;;;;;;4986666;28;20114;-96
2023/04/10 01:43:51;;;;;;;34.97;23.50;;;;;;;;;;4982589;28;20031;-96
2023/04/10 01:49:21;;;;;;;37.45;25.08;;;;;;;;;;4985349;28;20317;-92
2023/04/10 01:51:48;;;;;;;35.05;23.98;;;;;;;;;;4988628;28;20031;-96
2023/04/10 01:54:15;;;;;;;40.95;24.85;;;;;;;;;;4983530;28;20437;-96
2023/04/10 01:56:41;;;;;;;37.05;24.42;;;;;;;;;;4983728;28;20038;-94
2023/04/10 01:59:08;;;;;;;35.88;22.83;;;;;;;;;;4993996;28;20030;-96
2023/04/10 02:01:34;;;;;;;36.60;23.70;;;;;;;;;;4986264;28;20038;-95
2023/04/10 02:04:01;;;;;;;35.67;23.70;;;;;;;;;;4986163;28;20413;-96
2023/04/10 02:06:30;;;;;;;35.83;23.63;;;;;;;;;;4983358;28;20027;-95
2023/04/10 02:08:58;;;;;;;34.60;23.20;;;;;;;;;;4981273;28;20019;-95
2023/04/10 02:11:31;;;;;;;37.35;23.77;;;;;;;;;;4983221;28;20037;-95
2023/04/10 02:14:00;;;;;;;36.25;24.05;;;;;;;;;;4981163;28;20030;-95
2023/04/10 02:16:26;;;;;;;36.15;23.40;;;;;;;;;;4985177;28;20022;-96
2023/04/10 02:21:57;;;;;;;31.92;21.48;;;;;;;;;;4999988;28;20033;-94
2023/04/10 02:24:24;;;;;;;35.88;23.10;;;;;;;;;;5002466;28;20058;-94
2023/04/10 02:26:52;;;;;;;33.22;22.77;;;;;;;;;;5000002;28;20042;-95
2023/04/10 02:29:18;;;;;;;34.13;22.48;;;;;;;;;;4999884;28;20105;-95
2023/04/10 02:34:48;;;;;;;32.35;21.85;;;;;;;;;;4999825;28;20345;-95
2023/04/10 02:37:15;;;;;;;35.05;23.50;;;;;;;;;;5000077;28;20026;-95
2023/04/10 02:39:42;;;;;;;38.13;24.45;;;;;;;;;;5009195;28;20035;-96
2023/04/10 02:42:08;;;;;;;33.80;23.17;;;;;;;;;;4999808;28;20057;-93
2023/04/10 02:44:34;;;;;;;35.17;23.70;;;;;;;;;;4999729;28;20023;-92
2023/04/10 02:47:00;;;;;;;34.00;22.70;;;;;;;;;;4999856;28;20052;-93
2023/04/10 02:49:26;;;;;;;36.05;23.30;;;;;;;;;;4998596;28;20030;-94
2023/04/10 02:51:52;;;;;;;36.05;24.10;;;;;;;;;;5000412;28;20064;-95
2023/04/10 02:54:18;;;;;;;37.53;24.50;;;;;;;;;;4999968;28;20286;-96
2023/04/10 02:56:45;;;;;;;37.78;23.85;;;;;;;;;;4991794;28;20047;-94
2023/04/10 02:59:12;;;;;;;33.70;22.92;;;;;;;;;;4980463;28;20413;-95
2023/04/10 03:01:56;;;;;;;36.63;23.20;;;;;;;;;;4980697;28;20031;-96
2023/04/10 03:04:22;;;;;;;37.10;23.75;;;;;;;;;;4980960;28;20031;-96
2023/04/10 03:06:48;;;;;;;37.33;24.02;;;;;;;;;;4979013;28;20112;-94
2023/04/10 03:09:14;;;;;;;38.63;23.95;;;;;;;;;;4982472;28;20057;-93
2023/04/10 03:11:41;;;;;;;37.65;24.20;;;;;;;;;;4999228;28;20030;-94
2023/04/10 03:14:08;;;;;;;35.42;23.13;;;;;;;;;;4998730;28;20025;-94
2023/04/10 03:16:34;;;;;;;34.92;23.27;;;;;;;;;;4992373;28;20019;-95
2023/04/10 03:19:00;;;;;;;36.63;24.00;;;;;;;;;;4998145;23;20050;-94
2023/04/10 03:21:27;;;;;;;32.95;23.35;;;;;;;;;;4998989;28;20109;-94
2023/04/10 03:23:53;;;;;;;33.88;23.55;;;;;;;;;;4998883;28;20026;-95
2023/04/10 03:32:45;;;;;;;33.95;22.75;;;;;;;;;;5303832;23;20057;-93
2023/04/10 03:35:14;;;;;;;35.97;23.83;;;;;;;;;;5001712;28;20030;-95
2023/04/10 03:37:41;;;;;;;34.00;23.42;;;;;;;;;;5000016;28;20026;-96
2023/04/10 03:40:08;;;;;;;36.17;24.08;;;;;;;;;;5005250;28;20117;-95
2023/04/10 03:42:34;;;;;;;37.80;24.35;;;;;;;;;;4998994;28;20110;-95
2023/04/10 03:55:52;;;;;;;34.67;23.23;;;;;;;;;;5060999;23;20065;-96
2023/04/10 03:58:23;;;;;;;37.22;24.85;;;;;;;;;;5032471;28;20082;-96
2023/04/10 04:03:35;;;;;;;37.40;23.88;;;;;;;;;;5199665;23;20056;-95
2023/04/10 04:06:01;;;;;;;34.08;23.80;;;;;;;;;;5040891;23;20076;-96
2023/04/10 04:08:27;;;;;;;37.20;23.85;;;;;;;;;;5017550;28;20048;-94
2023/04/10 04:10:53;;;;;;;34.05;23.15;;;;;;;;;;5017642;28;20057;-93
2023/04/10 04:13:19;;;;;;;34.75;23.48;;;;;;;;;;5019166;28;20036;-93
2023/04/10 04:15:46;;;;;;;35.60;23.65;;;;;;;;;;5026665;28;20023;-92
2023/04/10 04:21:16;;;;;;;34.03;23.38;;;;;;;;;;5024132;28;20029;-95
2023/04/10 04:23:51;;;;;;;35.72;22.80;;;;;;;;;;5017716;28;20029;-94
2023/04/10 04:26:18;;;;;;;38.78;25.45;;;;;;;;;;5016525;28;20034;-94
2023/04/10 04:28:44;;;;;;;40.42;24.83;;;;;;;;;;5003483;28;20057;-95
2023/04/10 04:31:10;;;;;;;39.42;24.83;;;;;;;;;;5018833;28;20029;-95
2023/04/10 04:34:08;;;;;;;38.95;24.55;;;;;;;;;;5001163;28;20035;-93
2023/04/10 04:36:34;;;;;;;38.95;24.02;;;;;;;;;;5017401;28;20038;-93
2023/04/10 04:39:00;;;;;;;34.80;22.38;;;;;;;;;;5000469;28;20385;-94
2023/04/10 04:41:29;;;;;;;36.88;23.90;;;;;;;;;;5017907;28;20026;-93
2023/04/10 04:43:55;;;;;;;38.40;23.38;;;;;;;;;;5017915;28;20033;-93
2023/04/10 04:46:21;;;;;;;37.28;24.20;;;;;;;;;;5000322;28;20113;-93
2023/04/10 04:49:06;;;;;;;36.83;23.98;;;;;;;;;;5000333;28;20364;-93
2023/04/10 04:51:32;;;;;;;37.63;24.55;;;;;;;;;;5000507;28;20084;-94
2023/04/10 04:53:58;;;;;;;35.58;23.58;;;;;;;;;;5021703;28;20100;-95
2023/04/10 04:56:24;;;;;;;34.95;23.08;;;;;;;;;;5003872;28;20030;-95
2023/04/10 05:01:26;;;;;;;37.22;24.05;;;;;;;;;;5121568;22;20328;-96
2023/04/10 05:07:10;;;;;;;32.78;22.58;;;;;;;;;;5061893;28;20031;-95
2023/04/10 05:09:36;;;;;;;33.58;22.92;;;;;;;;;;5065987;28;20033;-95
2023/04/10 05:12:02;;;;;;;33.67;22.73;;;;;;;;;;5048770;28;20033;-96
2023/04/10 05:14:29;;;;;;;35.55;24.23;;;;;;;;;;5045207;28;20124;-95
2023/04/10 05:16:55;;;;;;;33.72;22.60;;;;;;;;;;5061137;28;20033;-95
2023/04/10 05:22:25;;;;;;;39.10;26.58;;;;;;;;;;5061109;28;20083;-94
2023/04/10 05:24:51;;;;;;;47.85;33.00;;;;;;;;;;5043195;28;20067;-96
2023/04/10 05:27:17;;;;;;;41.85;28.73;;;;;;;;;;5043325;28;20048;-96
2023/04/10 05:29:44;;;;;;;34.22;24.35;;;;;;;;;;5061015;28;20025;-95
2023/04/10 05:32:10;;;;;;;36.70;24.00;;;;;;;;;;5060730;28;20037;-95
2023/04/10 05:37:53;;;;;;;37.20;24.48;;;;;;;;;;5063878;28;20035;-95
2023/04/10 05:43:42;;;;;;;39.58;24.58;;;;;;;;;;5075177;28;20048;-96
2023/04/10 05:46:20;;;;;;;33.50;22.52;;;;;;;;;;5040187;28;20048;-95
2023/04/10 05:49:21;;;;;;;32.15;22.58;;;;;;;;;;5057865;28;20025;-96
2023/04/10 05:51:54;;;;;;;36.90;23.58;;;;;;;;;;5075359;28;20028;-96
2023/04/10 06:05:19;;;;;;;30.35;21.10;;;;;;;;;;5374054;22;20065;-95
2023/04/10 06:08:00;;;;;;;33.72;23.00;;;;;;;;;;5035171;28;20025;-95
2023/04/10 06:10:35;;;;;;;31.95;21.92;;;;;;;;;;5037373;28;20562;-96
2023/04/10 06:13:10;;;;;;;28.42;20.33;;;;;;;;;;5028032;28;20029;-95
2023/04/10 06:15:37;;;;;;;33.63;21.88;;;;;;;;;;5028020;28;20029;-95
2023/04/10 06:18:22;;;;;;;32.47;21.95;;;;;;;;;;5008242;28;20042;-95
2023/04/10 06:20:48;;;;;;;32.72;22.38;;;;;;;;;;5020756;28;20022;-96
2023/04/10 06:31:34;;;;;;;29.58;20.42;;;;;;;;;;6015095;22;20001;-95
2023/04/10 06:34:00;;;;;;;29.27;20.48;;;;;;;;;;5021797;28;20022;-95
2023/04/10 06:36:26;;;;;;;28.58;19.85;;;;;;;;;;5005328;28;20025;-94
2023/04/10 06:41:28;;;;;;;31.60;21.23;;;;;;;;;;5430355;23;20077;-94
2023/04/10 06:43:54;;;;;;;32.13;21.70;;;;;;;;;;5051232;28;20037;-94
2023/04/10 06:46:20;;;;;;;30.30;21.08;;;;;;;;;;5051878;28;20047;-94
2023/04/10 06:48:46;;;;;;;29.52;20.25;;;;;;;;;;5023033;28;20427;-95
2023/04/10 06:51:13;;;;;;;33.20;23.02;;;;;;;;;;5028202;28;20061;-95
2023/04/10 06:53:39;;;;;;;33.85;23.20;;;;;;;;;;5042702;28;20323;-94
2023/04/10 06:56:05;;;;;;;38.08;24.00;;;;;;;;;;5042203;28;20017;-96
2023/04/10 06:58:32;;;;;;;34.50;23.33;;;;;;;;;;5059228;28;20017;-95
2023/04/10 07:01:03;;;;;;;34.67;22.15;;;;;;;;;;5043071;28;20021;-96
2023/04/10 07:09:49;;;;;;;28.83;20.42;;;;;;;;;;5038473;28;20040;-95
2023/04/10 07:12:20;;;;;;;35.83;24.00;;;;;;;;;;5039767;28;20038;-96
2023/04/10 07:14:46;;;;;;;34.63;21.75;;;;;;;;;;5049907;28;20041;-96
2023/04/10 07:17:13;;;;;;;27.13;19.25;;;;;;;;;;5053694;28;20049;-95
2023/04/10 07:19:39;;;;;;;28.50;20.02;;;;;;;;;;5058416;28;20025;-95
2023/04/10 07:22:06;;;;;;;27.27;19.73;;;;;;;;;;5061135;28;20029;-94
2023/04/10 07:24:32;;;;;;;27.33;18.83;;;;;;;;;;5058112;28;20037;-94
2023/04/10 07:29:31;;;;;;;23.88;16.58;;;;;;;;;;5020217;28;20125;-95
2023/04/10 07:31:57;;;;;;;26.52;19.25;;;;;;;;;;5030463;28;20065;-96
2023/04/10 07:37:27;;;;;;;68.15;49.60;;;;;;;;;;5021064;28;20072;-94
2023/04/10 07:39:53;;;;;;;34.10;25.05;;;;;;;;;;5018603;28;20046;-94
2023/04/10 07:42:19;;;;;;;21.90;15.50;;;;;;;;;;5017963;28;20034;-96
2023/04/10 07:44:45;;;;;;;20.50;14.38;;;;;;;;;;5017211;28;20431;-94
2023/04/10 07:47:11;;;;;;;17.15;12.73;;;;;;;;;;5021146;28;20025;-95
2023/04/10 07:49:37;;;;;;;19.25;13.18;;;;;;;;;;5019625;28;20030;-95
2023/04/10 07:52:03;;;;;;;17.67;12.45;;;;;;;;;;5019529;28;20030;-95
2023/04/10 07:54:33;;;;;;;18.67;13.13;;;;;;;;;;5019390;28;20095;-94
2023/04/10 07:56:59;;;;;;;26.23;13.45;;;;;;;;;;5038326;28;20030;-95
2023/04/10 07:59:26;;;;;;;18.98;13.23;;;;;;;;;;5020562;28;20483;-93
2023/04/10 08:01:52;;;;;;;18.88;12.48;;;;;;;;;;5019848;28;20128;-95
2023/04/10 08:04:18;;;;;;;20.35;14.27;;;;;;;;;;5017904;28;20026;-96
2023/04/10 08:06:44;;;;;;;18.60;13.68;;;;;;;;;;5017091;28;20033;-93
2023/04/10 08:09:10;;;;;;;30.35;16.10;;;;;;;;;;5018452;28;20032;-95
2023/04/10 08:11:36;;;;;;;16.85;13.30;;;;;;;;;;5017330;28;20030;-94
2023/04/10 08:14:05;;;;;;;18.50;12.68;;;;;;;;;;5019832;28;20076;-95
2023/04/10 08:16:32;;;;;;;18.40;12.40;;;;;;;;;;5018369;28;20298;-88
2023/04/10 08:22:08;;;;;;;22.25;14.98;;;;;;;;;;5015521;28;20112;-95
2023/04/10 08:24:34;;;;;;;27.00;15.52;;;;;;;;;;5015945;28;20022;-92
2023/04/10 08:27:01;;;;;;;23.52;15.25;;;;;;;;;;5019014;28;20413;-93
2023/04/10 08:29:27;;;;;;;21.70;14.98;;;;;;;;;;5022256;28;20050;-92
2023/04/10 08:31:54;;;;;;;25.38;15.35;;;;;;;;;;5025795;28;20029;-88
2023/04/10 08:34:23;;;;;;;21.17;13.85;;;;;;;;;;5021369;28;20022;-94
2023/04/10 08:36:49;;;;;;;22.17;12.85;;;;;;;;;;5021680;28;20068;-95
2023/04/10 08:39:15;;;;;;;24.15;14.90;;;;;;;;;;5021231;28;20061;-93
2023/04/10 08:41:41;;;;;;;24.23;15.52;;;;;;;;;;5004222;28;20022;-93
2023/04/10 08:44:07;;;;;;;25.02;15.60;;;;;;;;;;5021355;28;20416;-94
2023/04/10 08:46:35;;;;;;;34.38;18.10;;;;;;;;;;5005558;23;20050;-91
2023/04/10 08:49:30;;;;;;;29.27;16.17;;;;;;;;;;5001845;28;20026;-94
2023/04/10 08:51:57;;;;;;;22.27;13.77;;;;;;;;;;5001699;28;20371;-93
2023/04/10 08:54:32;;;;;;;18.45;13.18;;;;;;;;;;5000546;28;20294;-92
2023/04/10 08:57:00;;;;;;;18.83;12.68;;;;;;;;;;5000622;28;20026;-93
2023/04/10 08:59:30;;;;;;;16.65;12.48;;;;;;;;;;5000789;28;20030;-94
2023/04/10 09:01:56;;;;;;;17.65;12.00;;;;;;;;;;5001305;28;20424;-94
2023/04/10 09:13:47;;;;;;;17.88;12.70;;;;;;;;;;5001253;28;20348;-92
2023/04/10 09:16:13;;;;;;;21.10;13.57;;;;;;;;;;5002466;28;20444;-90
2023/04/10 09:18:41;;;;;;;22.33;13.23;;;;;;;;;;5002322;28;20042;-89
2023/04/10 09:21:27;;;;;;;20.90;12.50;;;;;;;;;;5001398;28;20026;-87
2023/04/10 09:24:00;;;;;;;21.25;13.90;;;;;;;;;;5556665;23;20064;-96
2023/04/10 09:26:39;;;;;;;20.05;12.75;;;;;;;;;;5045433;28;20037;-96
2023/04/10 09:29:06;;;;;;;16.45;12.00;;;;;;;;;;5035180;23;20073;-94
2023/04/10 09:31:36;;;;;;;23.92;12.68;;;;;;;;;;5038426;28;20044;-94
2023/04/10 09:40:19;;;;;;;17.48;12.38;;;;;;;;;;5039413;28;20493;-91
2023/04/10 09:42:45;;;;;;;21.90;13.05;;;;;;;;;;5039926;28;20032;-90
2023/04/10 09:45:12;;;;;;;22.52;13.23;;;;;;;;;;5040049;28;20043;-91
2023/04/10 09:47:38;;;;;;;20.10;12.18;;;;;;;;;;5039051;28;20024;-90
2023/04/10 09:50:04;;;;;;;20.55;12.98;;;;;;;;;;5039224;28;20065;-90
2023/04/10 09:52:31;;;;;;;18.52;11.50;;;;;;;;;;5053121;28;20037;-89
2023/04/10 09:54:59;;;;;;;18.70;12.30;;;;;;;;;;5058986;28;20054;-88
2023/04/10 09:57:26;;;;;;;19.50;11.52;;;;;;;;;;5059870;28;20342;-89
2023/04/10 09:59:53;;;;;;;21.15;11.25;;;;;;;;;;5058842;28;20029;-88
2023/04/10 10:02:20;;;;;;;23.50;14.50;;;;;;;;;;5058726;28;20025;-87
2023/04/10 10:04:46;;;;;;;21.67;12.38;;;;;;;;;;5058729;28;20108;-89
2023/04/10 10:07:22;;;;;;;20.85;13.48;;;;;;;;;;5059724;28;20025;-88
2023/04/10 10:09:52;;;;;;;21.60;12.48;;;;;;;;;;5058664;28;20040;-89
2023/04/10 10:12:23;;;;;;;16.65;12.00;;;;;;;;;;5059746;28;20063;-89
2023/04/10 10:14:54;;;;;;;18.23;13.48;;;;;;;;;;5059304;28;20029;-90
2023/04/10 10:17:23;;;;;;;19.55;12.60;;;;;;;;;;5058427;28;20051;-89
2023/04/10 10:26:23;;;;;;;15.95;11.90;;;;;;;;;;5059563;28;20183;-90
2023/04/10 10:28:54;;;;;;;16.25;11.27;;;;;;;;;;5059229;28;20052;-89
2023/04/10 10:31:23;;;;;;;15.90;11.15;;;;;;;;;;5059334;28;20323;-90
2023/04/10 10:33:51;;;;;;;15.15;10.80;;;;;;;;;;5059515;28;20017;-93
2023/04/10 10:36:18;;;;;;;12.27;10.15;;;;;;;;;;5059387;28;20025;-90
2023/04/10 10:38:50;;;;;;;16.88;10.38;;;;;;;;;;5058322;28;20045;-87
2023/04/10 10:41:30;;;;;;;12.43;9.75;;;;;;;;;;5059426;28;20041;-88
2023/04/10 10:43:59;;;;;;;13.70;9.95;;;;;;;;;;5058820;28;20185;-88
2023/04/10 10:46:34;;;;;;;12.57;10.15;;;;;;;;;;5059146;28;20025;-88
2023/04/10 10:49:01;;;;;;;12.07;10.38;;;;;;;;;;5058041;28;20128;-87
2023/04/10 10:54:44;;;;;;;12.07;10.15;;;;;;;;;;5059107;28;20350;-87
2023/04/10 10:57:30;;;;;;;14.20;10.63;;;;;;;;;;5057813;28;20045;-88
2023/04/10 10:59:56;;;;;;;10.45;8.93;;;;;;;;;;5057769;28;20029;-89
2023/04/10 11:02:22;;;;;;;11.20;9.60;;;;;;;;;;5057675;28;20049;-86
2023/04/10 11:04:49;;;;;;;11.85;9.68;;;;;;;;;;5040942;28;20308;-88
2023/04/10 11:07:17;;;;;;;15.13;10.73;;;;;;;;;;5057327;28;20320;-88
2023/04/10 11:09:49;;;;;;;13.23;10.48;;;;;;;;;;5057693;28;20112;-88
2023/04/10 11:12:16;;;;;;;13.40;9.82;;;;;;;;;;5058509;28;20033;-87
2023/04/10 11:14:43;;;;;;;13.82;10.48;;;;;;;;;;5058492;28;20112;-88
2023/04/10 11:17:10;;;;;;;11.85;10.02;;;;;;;;;;5058268;28;20020;-88
2023/04/10 11:23:00;;;;;;;11.38;9.10;;;;;;;;;;5058186;28;20453;-88
2023/04/10 11:25:45;;;;;;;10.45;8.50;;;;;;;;;;5057445;28;20423;-89
2023/04/10 11:28:34;;;;;;;10.20;8.63;;;;;;;;;;5057874;28;20025;-87
2023/04/10 11:31:14;;;;;;;11.10;9.55;;;;;;;;;;5057462;28;20075;-87
2023/04/10 11:33:40;;;;;;;23.55;11.05;;;;;;;;;;5057281;28;20115;-88
2023/04/10 11:36:07;;;;;;;10.57;9.23;;;;;;;;;;5058464;28;20024;-88
2023/04/10 11:38:33;;;;;;;10.55;9.45;;;;;;;;;;5057219;28;20331;-87
2023/04/10 11:41:05;;;;;;;13.05;10.85;;;;;;;;;;5058292;28;20331;-86
2023/04/10 11:43:32;;;;;;;13.15;11.27;;;;;;;;;;5058427;28;20037;-87
2023/04/10 11:46:02;;;;;;;12.93;10.68;;;;;;;;;;5058260;28;20029;-87
2023/04/10 11:48:29;;;;;;;12.02;9.93;;;;;;;;;;5057158;28;20029;-88
2023/04/10 11:50:55;;;;;;;13.85;9.80;;;;;;;;;;5056948;28;20029;-87
2023/04/10 11:53:21;;;;;;;11.93;10.20;;;;;;;;;;5057657;28;20029;-88
2023/04/10 11:55:48;;;;;;;13.70;10.55;;;;;;;;;;5058200;28;20412;-87
2023/04/10 11:58:23;;;;;;;13.48;9.85;;;;;;;;;;5057930;28;20328;-88
2023/04/10 12:01:03;;;;;;;11.43;9.77;;;;;;;;;;5058015;28;20071;-88
2023/04/10 12:03:32;;;;;;;12.85;9.68;;;;;;;;;;5057635;28;20025;-87
2023/04/10 12:05:59;;;;;;;10.55;8.95;;;;;;;;;;5056794;28;20017;-87
2023/04/10 12:08:31;;;;;;;10.57;8.60;;;;;;;;;;5057763;28;20021;-87
2023/04/10 12:10:57;;;;;;;12.20;9.45;;;;;;;;;;5057257;28;20423;-87
2023/04/10 13:31:25;;;;;;;61.47;10.20;;;;;;;;;;6045199;22;20035;-94
2023/04/10 14:44:22;;;;;;;16.20;9.82;;;;;;;;;;5081451;22;20074;-93
2023/04/10 15:07:35;;;;;;;21.98;16.23;;;;;;;;;;5979099;22;20027;-95
2023/04/10 15:15:13;;;;;;;18.92;14.63;;;;;;;;;;6004535;22;20293;-95
2023/04/10 15:29:12;;;;;;;17.42;15.20;;;;;;;;;;5696037;22;20072;-96
2023/04/10 15:34:14;;;;;;;19.17;14.90;;;;;;;;;;5858396;22;20095;-94
2023/04/10 15:39:44;;;;;;;23.50;16.67;;;;;;;;;;5368430;22;20035;-96
2023/04/10 15:42:14;;;;;;;31.50;20.08;;;;;;;;;;5026328;28;20050;-94
2023/04/10 15:44:46;;;;;;;24.25;15.73;;;;;;;;;;5031575;28;20050;-95
2023/04/10 15:47:14;;;;;;;23.73;17.13;;;;;;;;;;5048115;28;20046;-96
2023/04/10 15:49:42;;;;;;;23.85;16.70;;;;;;;;;;5032059;28;20038;-95
2023/04/10 15:52:14;;;;;;;21.05;16.27;;;;;;;;;;5043902;28;20026;-96
2023/04/10 15:54:40;;;;;;;27.75;21.00;;;;;;;;;;5052349;28;20081;-96
2023/04/10 15:57:07;;;;;;;20.63;14.57;;;;;;;;;;5052229;28;20120;-96
2023/04/10 15:59:34;;;;;;;22.92;17.48;;;;;;;;;;5050414;28;20026;-94
2023/04/10 16:10:51;;;;;;;26.50;18.73;;;;;;;;;;5053811;28;20324;-95
2023/04/10 16:13:19;;;;;;;23.73;18.13;;;;;;;;;;5049792;28;20022;-94
2023/04/10 16:15:45;;;;;;;24.23;18.05;;;;;;;;;;5023198;28;20026;-95
2023/04/10 16:18:14;;;;;;;23.58;16.48;;;;;;;;;;5026114;28;20409;-95
2023/04/10 16:20:41;;;;;;;21.45;16.48;;;;;;;;;;5009229;28;20037;-94
2023/04/10 16:23:44;;;;;;;21.67;16.10;;;;;;;;;;5025165;28;20470;-94
2023/04/10 16:34:24;;;;;;;22.67;16.30;;;;;;;;;;6124233;23;20020;-95
2023/04/10 16:36:53;;;;;;;23.25;18.13;;;;;;;;;;5047324;28;20068;-96
2023/04/10 16:39:27;;;;;;;19.77;16.00;;;;;;;;;;5049077;28;20036;-96
2023/04/10 16:41:53;;;;;;;20.48;15.55;;;;;;;;;;5047980;28;20052;-96
2023/04/10 16:44:30;;;;;;;19.92;15.70;;;;;;;;;;5062670;28;20041;-95
2023/04/10 16:47:21;;;;;;;20.27;14.90;;;;;;;;;;5046061;28;20049;-96
2023/04/10 16:49:47;;;;;;;20.93;14.90;;;;;;;;;;5065178;28;20024;-96
2023/04/10 16:55:27;;;;;;;19.00;14.82;;;;;;;;;;5093808;28;20039;-96
2023/04/10 16:58:01;;;;;;;21.55;15.15;;;;;;;;;;5072739;28;20025;-96
2023/04/10 17:00:30;;;;;;;25.50;16.65;;;;;;;;;;5082615;28;20020;-95
2023/04/10 17:03:10;;;;;;;25.48;17.40;;;;;;;;;;5063582;28;20082;-96
2023/04/10 17:05:38;;;;;;;23.23;17.23;;;;;;;;;;5043237;28;20044;-95
2023/04/10 17:08:25;;;;;;;27.58;17.30;;;;;;;;;;5022622;28;20030;-95
2023/04/10 17:10:53;;;;;;;30.77;18.80;;;;;;;;;;5039396;28;20025;-95
2023/04/10 17:13:21;;;;;;;34.67;19.90;;;;;;;;;;5039141;28;20038;-95
2023/04/10 17:15:51;;;;;;;23.65;16.13;;;;;;;;;;5022391;28;20336;-95
2023/04/10 17:18:23;;;;;;;39.60;24.02;;;;;;;;;;5039383;28;20048;-96
2023/04/10 17:24:12;;;;;;;27.38;21.13;;;;;;;;;;4983130;28;20434;-96
2023/04/10 17:26:52;;;;;;;27.15;19.17;;;;;;;;;;4980282;28;20031;-96
2023/04/10 17:29:37;;;;;;;26.70;19.00;;;;;;;;;;4979636;28;20063;-95
2023/04/10 17:32:05;;;;;;;24.95;18.20;;;;;;;;;;4980049;28;20023;-94
2023/04/10 17:34:33;;;;;;;27.48;19.85;;;;;;;;;;4963905;28;20042;-95
2023/04/10 17:37:24;;;;;;;33.17;23.77;;;;;;;;;;4963854;28;20031;-91
2023/04/10 17:39:52;;;;;;;31.20;20.15;;;;;;;;;;4963195;28;20329;-93
2023/04/10 17:42:19;;;;;;;36.35;22.25;;;;;;;;;;4963527;28;20090;-93
2023/04/10 17:44:54;;;;;;;37.00;24.23;;;;;;;;;;4979693;28;20069;-96
2023/04/10 17:47:39;;;;;;;39.85;23.75;;;;;;;;;;4980108;28;20291;-95
2023/04/10 17:50:05;;;;;;;42.28;25.20;;;;;;;;;;4963607;28;20027;-90
2023/04/10 17:56:07;;;;;;;61.22;34.25;;;;;;;;;;4999063;28;20053;-94
2023/04/10 17:58:46;;;;;;;71.72;38.03;;;;;;;;;;4982478;28;20038;-94
2023/04/10 18:01:20;;;;;;;63.00;34.58;;;;;;;;;;5035168;28;20045;-92
2023/04/10 18:03:55;;;;;;;60.60;33.75;;;;;;;;;;5022277;28;20022;-94
2023/04/10 18:06:31;;;;;;;58.25;33.20;;;;;;;;;;5041943;28;20358;-94
2023/04/10 18:08:59;;;;;;;49.65;31.38;;;;;;;;;;5041625;28;20024;-95
2023/04/10 18:11:26;;;;;;;49.72;32.22;;;;;;;;;;5038836;28;20104;-94
2023/04/10 18:13:52;;;;;;;43.10;29.42;;;;;;;;;;5039876;28;20487;-95
2023/04/10 18:16:18;;;;;;;46.03;27.35;;;;;;;;;;5039488;28;20053;-94
2023/04/10 18:18:44;;;;;;;42.13;27.10;;;;;;;;;;5047622;28;20116;-95
2023/04/10 18:21:12;;;;;;;35.13;23.92;;;;;;;;;;5059447;28;20418;-94
2023/04/10 18:23:38;;;;;;;31.10;22.27;;;;;;;;;;5037406;28;20069;-86
2023/04/10 18:26:05;;;;;;;36.97;23.48;;;;;;;;;;5039082;28;20033;-87
2023/04/10 18:28:31;;;;;;;40.08;23.58;;;;;;;;;;5038280;28;20069;-87
2023/04/10 18:30:58;;;;;;;30.00;22.70;;;;;;;;;;5038131;28;20064;-88
2023/04/10 18:33:24;;;;;;;33.38;23.10;;;;;;;;;;5038421;28;20033;-86
2023/04/10 18:35:51;;;;;;;38.65;24.02;;;;;;;;;;5039164;28;20038;-87
2023/04/10 18:44:24;;;;;;;32.70;19.40;;;;;;;;;;5038921;28;20111;-91
2023/04/10 18:46:50;;;;;;;28.67;19.20;;;;;;;;;;5039255;28;20355;-91
2023/04/10 18:49:16;;;;;;;80.55;40.83;;;;;;;;;;5037996;28;20323;-90
2023/04/10 19:04:50;;;;;;;100.85;47.17;;;;;;;;;;5038935;28;20044;-91
2023/04/10 19:07:53;;;;;;;95.07;46.08;;;;;;;;;;5037663;28;20022;-90
2023/04/10 19:10:19;;;;;;;77.45;39.58;;;;;;;;;;5037533;28;20412;-91
2023/04/10 19:12:46;;;;;;;44.75;26.65;;;;;;;;;;5037457;28;20029;-91
2023/04/10 19:15:12;;;;;;;54.70;30.08;;;;;;;;;;5038692;28;20034;-91
2023/04/10 19:17:39;;;;;;;62.92;35.17;;;;;;;;;;5037394;28;20025;-92
2023/04/10 19:20:05;;;;;;;38.58;25.00;;;;;;;;;;5037523;28;20439;-91
2023/04/10 19:22:33;;;;;;;63.95;31.92;;;;;;;;;;5038261;28;20071;-91
2023/04/10 19:24:59;;;;;;;56.83;29.85;;;;;;;;;;5037464;28;20432;-90
2023/04/10 19:27:25;;;;;;;73.57;37.70;;;;;;;;;;5037380;28;20096;-89
2023/04/10 19:29:52;;;;;;;58.55;32.20;;;;;;;;;;5037057;28;20386;-90
2023/04/10 19:32:18;;;;;;;49.25;28.10;;;;;;;;;;5038357;28;20031;-91
2023/04/10 19:34:49;;;;;;;71.88;38.85;;;;;;;;;;5038125;28;20017;-90
2023/04/10 19:40:19;;;;;;;54.60;32.58;;;;;;;;;;5038162;28;20024;-91
2023/04/10 19:42:45;;;;;;;42.80;27.45;;;;;;;;;;5038224;28;20289;-90
2023/04/10 19:45:11;;;;;;;50.00;31.08;;;;;;;;;;5037884;28;20026;-91
2023/04/10 19:47:38;;;;;;;84.88;42.22;;;;;;;;;;5037777;28;20017;-90
2023/04/10 19:50:04;;;;;;;101.93;48.97;;;;;;;;;;5038210;28;20014;-91
2023/04/10 19:52:30;;;;;;;60.28;34.90;;;;;;;;;;5037607;28;20025;-91
2023/04/10 19:54:56;;;;;;;46.38;28.65;;;;;;;;;;5036850;28;20042;-92
2023/04/10 19:57:22;;;;;;;53.40;27.48;;;;;;;;;;5038566;28;20431;-86
2023/04/10 19:59:48;;;;;;;42.75;24.10;;;;;;;;;;5019875;28;20033;-86
2023/04/10 20:02:15;;;;;;;47.17;30.83;;;;;;;;;;5036564;28;20026;-85
2023/04/10 20:04:41;;;;;;;45.13;30.55;;;;;;;;;;5022614;28;20030;-85
2023/04/10 20:07:07;;;;;;;43.55;29.67;;;;;;;;;;5037678;28;20025;-86
2023/04/10 20:10:01;;;;;;;36.08;24.27;;;;;;;;;;5039058;28;20030;-95
2023/04/10 20:13:01;;;;;;;34.03;25.30;;;;;;;;;;5065390;23;20077;-96
2023/04/10 20:18:11;;;;;;;31.60;23.17;;;;;;;;;;5036045;28;20132;-95
2023/04/10 20:20:50;;;;;;;42.22;28.40;;;;;;;;;;5037792;28;20028;-95
2023/04/10 20:23:19;;;;;;;33.70;24.63;;;;;;;;;;5031133;28;20419;-95
2023/04/10 20:34:44;;;;;;;33.38;23.75;;;;;;;;;;5624213;22;20830;-96
2023/04/10 20:37:12;;;;;;;32.92;22.85;;;;;;;;;;5043045;28;20033;-96
2023/04/10 20:39:38;;;;;;;33.10;21.45;;;;;;;;;;5024148;28;20076;-96
2023/04/10 21:36:28;;;;;;;43.67;26.83;;;;;;;;;;5037192;23;20211;-94
2023/04/10 21:39:31;;;;;;;39.15;26.70;;;;;;;;;;5060636;28;20408;-95
2023/04/10 21:41:59;;;;;;;43.03;26.63;;;;;;;;;;5059897;28;20318;-96
2023/04/10 21:44:25;;;;;;;39.03;25.80;;;;;;;;;;5042740;28;20116;-96
2023/04/10 21:46:51;;;;;;;42.83;26.23;;;;;;;;;;5042867;28;20025;-95
2023/04/10 21:49:25;;;;;;;33.72;22.83;;;;;;;;;;5041867;28;20423;-95